Time;durP1;ratioP1;P1;durP2;ratioP2;P2;SDS_P1;SDS_P2;PMS_P1;PMS_P2;Temp;Humidity;BMP_temperature;BMP_pressure;BME280_temperature;BME280_humidity;BME280_pressure;Samples;Min_cycle;Max_cycle;Signal;HPM_P1;HPM_P2
2021/05/31 00:01:48;;;;;;;;;4.00;4.00;;;;;20.28;39.99;100571.59;4993956;28;8813;-47
2021/05/31 00:04:13;;;;;;;;;3.00;3.00;;;;;20.31;39.99;100581.13;4997596;28;8920;-47
2021/05/31 00:06:48;;;;;;;;;3.00;3.00;;;;;20.29;40.04;100577.88;4999082;28;8839;-46
2021/05/31 00:09:14;;;;;;;;;3.40;3.40;;;;;20.36;39.82;100573.56;4992222;28;8767;-47
2021/05/31 00:11:39;;;;;;;;;3.50;3.50;;;;;20.32;39.99;100572.59;5000845;28;8827;-46
2021/05/31 00:14:06;;;;;;;;;4.00;4.00;;;;;20.35;39.93;100569.25;4992517;28;8811;-46
2021/05/31 00:16:31;;;;;;;;;3.00;3.00;;;;;20.48;39.53;100570.28;4995160;28;8783;-46
2021/05/31 00:18:56;;;;;;;;;3.50;3.50;;;;;20.40;39.79;100571.03;4999401;28;8789;-47
2021/05/31 00:21:22;;;;;;;;;3.00;3.00;;;;;20.38;39.86;100565.06;4994347;28;9568;-46
2021/05/31 00:23:47;;;;;;;;;3.00;3.00;;;;;20.26;39.88;100568.34;4997364;28;8815;-47
2021/05/31 00:26:17;;;;;;;;;4.25;4.25;;;;;20.22;40.26;100562.69;4998930;28;9579;-47
2021/05/31 00:28:44;;;;;;;;;3.00;3.00;;;;;20.20;40.05;100570.41;4997699;28;8890;-46
2021/05/31 00:31:10;;;;;;;;;4.00;3.20;;;;;20.19;40.13;100570.69;4993853;28;8786;-46
2021/05/31 00:33:36;;;;;;;;;2.00;2.00;;;;;20.14;40.09;100559.88;4999390;28;8761;-45
2021/05/31 00:36:01;;;;;;;;;3.00;3.00;;;;;20.18;40.12;100563.63;4997582;28;8812;-48
2021/05/31 00:38:27;;;;;;;;;2.60;2.60;;;;;20.19;39.97;100560.56;5000452;28;8836;-49
2021/05/31 00:40:52;;;;;;;;;3.00;3.00;;;;;20.12;40.16;100564.84;4998013;28;8935;-46
2021/05/31 00:43:18;;;;;;;;;3.00;3.00;;;;;20.03;40.19;100546.44;4996857;28;9560;-46
2021/05/31 00:45:43;;;;;;;;;3.50;3.50;;;;;20.12;40.12;100556.63;4999194;28;8797;-48
2021/05/31 00:48:08;;;;;;;;;4.50;4.50;;;;;20.09;40.35;100557.25;4995773;28;8757;-47
2021/05/31 00:50:34;;;;;;;;;3.00;3.00;;;;;20.08;40.12;100555.63;4997516;28;8804;-46
2021/05/31 00:53:01;;;;;;;;;3.00;3.00;;;;;20.10;40.21;100554.19;5001912;28;8808;-47
2021/05/31 00:55:26;;;;;;;;;3.00;3.00;;;;;20.09;40.17;100546.28;4994199;28;8966;-47
2021/05/31 00:57:51;;;;;;;;;3.00;3.00;;;;;20.08;40.21;100547.41;4990739;28;8974;-47
2021/05/31 01:00:17;;;;;;;;;3.25;3.25;;;;;20.08;40.21;100550.16;4981354;28;8795;-48
2021/05/31 01:02:42;;;;;;;;;4.00;4.00;;;;;20.08;40.27;100550.16;4995795;28;9439;-47
2021/05/31 01:05:09;;;;;;;;;2.00;2.00;;;;;20.10;40.06;100547.91;4997396;28;11525;-47
2021/05/31 01:07:46;;;;;;;;;4.20;4.20;;;;;19.97;40.04;100539.44;4999509;28;8800;-46
2021/05/31 01:10:35;;;;;;;;;3.60;3.60;;;;;20.05;40.33;100551.56;4985756;28;8807;-48
2021/05/31 01:13:13;;;;;;;;;4.00;4.00;;;;;20.03;40.25;100553.81;4990700;28;8816;-46
2021/05/31 01:16:06;;;;;;;;;3.00;3.00;;;;;20.07;40.14;100557.56;4998922;28;8813;-47
2021/05/31 01:18:38;;;;;;;;;4.00;4.00;;;;;20.03;40.10;100554.66;4996213;28;8849;-48
2021/05/31 01:21:28;;;;;;;;;3.00;3.00;;;;;20.05;40.19;100560.63;4997090;28;8902;-46
2021/05/31 01:24:05;;;;;;;;;3.00;3.00;;;;;20.02;40.22;100552.22;4996989;28;8798;-46
2021/05/31 01:26:42;;;;;;;;;3.00;3.00;;;;;19.99;40.18;100553.63;4999817;28;8881;-46
2021/05/31 01:29:10;;;;;;;;;3.00;3.00;;;;;20.01;40.29;100550.59;5001876;28;8812;-46
2021/05/31 01:31:41;;;;;;;;;3.00;2.80;;;;;20.15;39.92;100556.03;4999566;28;8808;-46
2021/05/31 01:34:10;;;;;;;;;3.80;3.80;;;;;20.11;40.12;100552.28;5001464;28;8791;-47
2021/05/31 01:36:43;;;;;;;;;3.60;3.60;;;;;19.98;40.23;100549.28;5000768;28;8910;-46
2021/05/31 01:39:10;;;;;;;;;4.00;3.80;;;;;19.94;40.30;100545.53;4998705;28;8767;-46
2021/05/31 01:41:36;;;;;;;;;4.00;4.00;;;;;19.83;40.38;100523.03;4976590;28;8795;-47
2021/05/31 01:44:02;;;;;;;;;3.60;3.40;;;;;19.90;40.38;100543.72;5003692;28;8940;-46
2021/05/31 01:46:27;;;;;;;;;3.50;3.00;;;;;19.91;40.42;100539.84;4997720;28;8943;-46
2021/05/31 01:48:55;;;;;;;;;3.75;3.75;;;;;19.91;40.44;100546.16;4988192;28;9041;-46
2021/05/31 01:51:21;;;;;;;;;3.00;3.00;;;;;19.96;40.16;100543.28;4983847;28;8914;-46
2021/05/31 01:53:47;;;;;;;;;3.00;3.00;;;;;19.95;40.12;100536.22;4999163;28;8935;-48
2021/05/31 01:56:15;;;;;;;;;3.00;3.00;;;;;19.90;40.37;100539.06;5001390;28;8865;-46
2021/05/31 01:58:41;;;;;;;;;3.80;3.80;;;;;19.89;40.39;100540.16;5000282;28;8946;-46
2021/05/31 02:01:09;;;;;;;;;3.40;3.00;;;;;19.89;40.23;100547.56;4995752;28;8897;-48
2021/05/31 02:03:34;;;;;;;;;3.40;3.40;;;;;19.85;40.32;100542.72;4999387;28;8886;-47
2021/05/31 02:05:59;;;;;;;;;3.00;3.00;;;;;19.87;40.32;100539.66;5000598;28;8938;-46
2021/05/31 02:08:24;;;;;;;;;3.50;3.50;;;;;19.84;40.31;100552.06;5003409;28;8824;-46
2021/05/31 02:10:50;;;;;;;;;3.00;3.00;;;;;19.81;40.48;100549.13;4997906;28;8817;-47
2021/05/31 02:13:16;;;;;;;;;4.75;3.75;;;;;19.77;40.40;100539.88;4997750;28;8798;-46
2021/05/31 02:15:41;;;;;;;;;3.40;3.00;;;;;19.73;40.72;100539.66;4996382;28;8820;-47
2021/05/31 02:18:25;;;;;;;;;4.00;4.00;;;;;19.80;40.52;100544.75;4994770;28;8829;-45
2021/05/31 02:20:54;;;;;;;;;4.40;4.40;;;;;19.81;40.51;100540.91;4995111;28;8828;-47
2021/05/31 02:23:21;;;;;;;;;3.00;3.00;;;;;19.69;40.34;100527.72;5003699;28;9621;-48
2021/05/31 02:25:49;;;;;;;;;4.00;4.00;;;;;19.82;40.24;100542.50;4998541;28;9589;-46
2021/05/31 02:28:14;;;;;;;;;3.00;3.00;;;;;19.81;40.38;100535.44;4989842;28;8820;-46
2021/05/31 02:30:40;;;;;;;;;4.00;4.00;;;;;19.76;40.48;100538.28;4983834;28;8819;-46
2021/05/31 02:33:05;;;;;;;;;3.60;3.60;;;;;19.83;40.39;100538.69;4994668;28;8861;-47
2021/05/31 02:35:34;;;;;;;;;3.00;3.00;;;;;19.88;40.42;100537.75;5002205;28;8811;-46
2021/05/31 02:38:02;;;;;;;;;3.00;3.00;;;;;19.90;40.21;100539.06;5001845;28;8836;-46
2021/05/31 02:40:28;;;;;;;;;4.00;3.00;;;;;19.90;40.13;100539.06;4982787;28;9542;-46
2021/05/31 02:42:56;;;;;;;;;4.40;4.40;;;;;19.90;40.17;100541.78;4981944;28;8814;-47
2021/05/31 02:45:23;;;;;;;;;3.60;3.40;;;;;19.91;40.19;100548.06;4985067;28;8784;-46
2021/05/31 02:47:50;;;;;;;;;3.80;3.80;;;;;19.92;40.25;100547.78;4998594;28;14002;-49
2021/05/31 02:50:15;;;;;;;;;3.00;3.00;;;;;19.93;40.19;100549.41;5002025;28;8839;-46
2021/05/31 02:52:42;;;;;;;;;4.00;4.00;;;;;19.80;40.14;100529.13;4999818;28;8788;-48
2021/05/31 02:55:13;;;;;;;;;3.60;3.60;;;;;19.93;40.15;100549.41;5000133;28;8861;-46
2021/05/31 02:57:39;;;;;;;;;3.20;3.20;;;;;19.80;40.31;100525.59;5000290;28;8808;-48
2021/05/31 03:00:07;;;;;;;;;3.20;3.20;;;;;19.93;40.25;100546.66;4996851;28;8785;-46
2021/05/31 03:02:33;;;;;;;;;4.00;4.00;;;;;19.89;40.22;100548.38;5003464;28;8815;-46
2021/05/31 03:04:58;;;;;;;;;3.00;3.00;;;;;19.81;40.35;100538.19;4993054;28;8799;-46
2021/05/31 03:07:23;;;;;;;;;3.25;3.25;;;;;19.88;40.22;100545.97;4997334;28;8855;-48
2021/05/31 03:09:49;;;;;;;;;4.00;4.00;;;;;19.78;40.32;100542.31;4996723;28;8803;-47
2021/05/31 03:12:14;;;;;;;;;4.00;4.00;;;;;19.82;40.30;100545.25;4996543;28;8786;-46
2021/05/31 03:14:39;;;;;;;;;4.50;4.00;;;;;19.79;40.27;100543.97;5001469;28;9592;-46
2021/05/31 03:17:05;;;;;;;;;4.00;4.00;;;;;19.77;40.48;100539.88;4997021;28;9566;-48
2021/05/31 03:19:30;;;;;;;;;4.00;3.00;;;;;19.74;40.47;100546.81;4995957;28;8796;-45
2021/05/31 03:21:55;;;;;;;;;4.50;4.50;;;;;19.73;40.54;100547.88;4997810;28;8813;-46
2021/05/31 03:24:21;;;;;;;;;4.25;4.00;;;;;19.76;40.47;100549.25;4999174;28;9512;-46
2021/05/31 03:26:46;;;;;;;;;4.00;4.00;;;;;19.76;40.52;100549.25;4998680;28;8821;-46
2021/05/31 03:29:12;;;;;;;;;4.50;4.00;;;;;19.83;40.33;100555.09;5004145;28;8872;-46
2021/05/31 03:31:37;;;;;;;;;4.00;4.00;;;;;19.68;40.60;100558.94;4998665;28;9567;-47
2021/05/31 03:34:02;;;;;;;;;3.00;3.00;;;;;19.66;40.58;100559.25;4993003;28;8797;-47
2021/05/31 03:36:28;;;;;;;;;4.50;4.50;;;;;19.64;40.66;100560.69;4999591;28;8788;-48
2021/05/31 03:38:53;;;;;;;;;3.00;3.00;;;;;19.61;40.79;100567.59;4995785;28;8810;-46
2021/05/31 03:41:18;;;;;;;;;4.25;4.25;;;;;19.67;40.63;100557.34;5002619;28;8794;-45
2021/05/31 03:43:44;;;;;;;;;4.00;4.00;;;;;19.71;40.50;100561.06;4999161;28;8796;-50
2021/05/31 03:46:09;;;;;;;;;4.50;4.50;;;;;19.73;40.39;100558.81;4997954;28;8808;-48
2021/05/31 03:48:34;;;;;;;;;3.75;3.75;;;;;19.76;40.37;100562.94;4998732;28;8787;-48
2021/05/31 03:51:10;;;;;;;;;4.00;4.00;;;;;19.73;40.53;100560.75;4990079;28;8801;-46
2021/05/31 03:53:37;;;;;;;;;4.00;4.00;;;;;19.75;40.38;100570.34;4998999;28;8898;-46
2021/05/31 03:56:03;;;;;;;;;3.00;3.00;;;;;19.70;40.34;100561.38;4998320;28;8935;-48
2021/05/31 03:58:28;;;;;;;;;5.75;5.00;;;;;19.75;40.40;100561.28;4994609;28;9591;-46
2021/05/31 04:00:54;;;;;;;;;4.00;4.00;;;;;19.74;40.40;100570.63;4998037;28;8788;-47
2021/05/31 04:03:20;;;;;;;;;4.50;4.50;;;;;19.71;40.42;100566.53;4989325;28;9570;-47
2021/05/31 04:05:58;;;;;;;;;3.20;3.20;;;;;19.71;40.34;100569.28;4997930;28;12265;-46
2021/05/31 04:13:52;;;;;;;;;3.40;3.40;;;;;19.70;40.62;100561.38;4996478;28;8822;-46
2021/05/31 04:16:18;;;;;;;;;4.00;4.00;;;;;19.68;40.72;100557.03;5001312;28;8816;-46
2021/05/31 04:18:43;;;;;;;;;3.00;3.00;;;;;19.66;40.59;100562.00;4992665;28;8813;-48
2021/05/31 04:21:09;;;;;;;;;4.00;4.00;;;;;19.66;40.54;100556.53;4998591;28;8788;-46
2021/05/31 04:23:34;;;;;;;;;4.00;4.00;;;;;19.68;40.51;100548.00;4998009;28;8824;-46
2021/05/31 04:25:59;;;;;;;;;4.25;4.25;;;;;19.67;40.58;100549.91;4994940;28;8784;-45
2021/05/31 04:28:24;;;;;;;;;4.25;4.25;;;;;19.65;40.57;100552.16;5004123;28;8861;-46
2021/05/31 04:30:50;;;;;;;;;4.00;4.00;;;;;19.65;40.59;100554.09;4997894;28;8814;-47
2021/05/31 04:33:15;;;;;;;;;4.00;4.00;;;;;19.67;40.53;100546.38;4998311;28;8779;-46
2021/05/31 04:35:40;;;;;;;;;5.00;4.75;;;;;19.72;40.54;100542.72;5001662;28;8808;-46
2021/05/31 04:38:06;;;;;;;;;3.25;3.00;;;;;19.69;40.40;100538.66;4991716;28;8849;-47
2021/05/31 04:40:31;;;;;;;;;3.00;3.00;;;;;19.65;40.60;100538.47;4993440;28;8788;-47
2021/05/31 04:42:56;;;;;;;;;4.25;4.25;;;;;19.63;40.67;100542.63;4996907;28;8831;-45
2021/05/31 04:45:22;;;;;;;;;4.00;4.00;;;;;19.60;40.65;100535.84;4993560;28;9103;-46
2021/05/31 04:47:47;;;;;;;;;4.50;4.50;;;;;19.62;40.65;100538.28;4998505;28;8785;-44
2021/05/31 04:50:13;;;;;;;;;4.00;4.00;;;;;19.60;40.62;100537.78;4998387;28;8892;-46
2021/05/31 04:52:38;;;;;;;;;4.80;4.80;;;;;19.62;40.69;100541.81;4998833;28;8810;-49
2021/05/31 04:55:04;;;;;;;;;4.75;4.75;;;;;19.62;40.60;100539.09;4994433;28;8796;-49
2021/05/31 04:57:29;;;;;;;;;4.00;4.00;;;;;19.63;40.68;100540.72;4985391;28;9609;-47
2021/05/31 04:59:55;;;;;;;;;4.00;4.00;;;;;19.62;40.53;100544.56;4975894;28;8954;-49
2021/05/31 05:02:20;;;;;;;;;4.25;4.25;;;;;19.62;40.67;100544.56;4997621;28;8926;-46
2021/05/31 05:04:46;;;;;;;;;4.00;4.00;;;;;19.61;40.71;100553.06;4993361;28;8796;-46
2021/05/31 05:07:14;;;;;;;;;3.00;3.00;;;;;19.60;40.64;100540.53;5000970;28;8784;-47
2021/05/31 05:09:39;;;;;;;;;3.40;3.40;;;;;19.62;40.54;100543.75;4994768;28;8791;-46
2021/05/31 05:12:05;;;;;;;;;4.00;4.00;;;;;19.61;40.62;100542.97;4991616;28;8761;-48
2021/05/31 05:14:31;;;;;;;;;3.60;3.60;;;;;19.62;40.62;100547.28;4978908;28;8791;-47
2021/05/31 05:16:56;;;;;;;;;4.50;4.50;;;;;19.63;40.53;100550.81;4978107;28;8849;-48
2021/05/31 05:19:21;;;;;;;;;5.00;4.75;;;;;19.61;40.67;100542.13;4987221;28;8814;-46
2021/05/31 05:21:47;;;;;;;;;5.00;5.00;;;;;19.60;40.68;100546.00;4992051;28;8890;-48
2021/05/31 05:24:12;;;;;;;;;4.00;4.00;;;;;19.61;40.67;100544.84;4997874;28;8806;-46
2021/05/31 05:26:38;;;;;;;;;7.00;5.00;;;;;19.59;40.54;100550.63;5001010;28;8893;-47
2021/05/31 05:29:03;;;;;;;;;4.00;4.00;;;;;19.60;40.75;100541.31;4990478;28;8803;-47
2021/05/31 05:31:28;;;;;;;;;4.00;4.00;;;;;19.56;40.60;100536.75;4998903;28;8894;-47
2021/05/31 05:33:54;;;;;;;;;4.00;3.25;;;;;19.55;40.71;100538.69;4992787;28;8923;-49
2021/05/31 05:36:26;;;;;;;;;5.00;5.00;;;;;19.54;40.83;100536.25;4986776;28;8821;-46
2021/05/31 05:39:17;;;;;;;;;4.20;4.20;;;;;19.55;40.71;100540.63;4980738;28;8818;-45
2021/05/31 05:49:38;;;;;;;;;4.60;4.00;;;;;19.54;40.85;100536.25;4965422;28;8788;-47
2021/05/31 05:52:03;;;;;;;;;4.25;4.25;;;;;19.51;40.81;100540.44;4972373;28;8810;-47
2021/05/31 05:54:30;;;;;;;;;4.00;4.00;;;;;19.51;40.83;100534.13;4982251;28;8814;-46
2021/05/31 05:56:55;;;;;;;;;3.80;3.80;;;;;19.53;40.73;100529.19;4977188;28;8846;-47
2021/05/31 05:59:21;;;;;;;;;4.75;4.75;;;;;19.51;40.81;100534.97;4978715;28;9499;-47
2021/05/31 06:01:46;;;;;;;;;5.00;5.00;;;;;19.51;40.91;100529.50;4993744;28;8881;-48
2021/05/31 06:04:11;;;;;;;;;4.00;4.00;;;;;19.52;40.93;100533.81;4996889;28;9508;-47
2021/05/31 06:06:37;;;;;;;;;4.00;4.00;;;;;19.52;40.90;100533.03;4993310;28;8866;-47
2021/05/31 06:09:05;;;;;;;;;5.50;5.00;;;;;19.54;40.69;100526.16;4998762;28;8807;-47
2021/05/31 06:11:30;;;;;;;;;5.80;5.80;;;;;19.58;40.67;100526.34;4993126;28;8800;-46
2021/05/31 06:13:55;;;;;;;;;3.75;3.75;;;;;19.61;40.76;100531.19;4996509;28;8812;-47
2021/05/31 06:16:21;;;;;;;;;5.00;5.00;;;;;19.59;40.62;100538.88;4993004;28;9796;-47
2021/05/31 06:18:46;;;;;;;;;4.00;4.00;;;;;19.58;40.75;100535.34;4992516;28;8816;-46
2021/05/31 06:21:12;;;;;;;;;3.25;3.25;;;;;19.57;40.83;100541.94;4993896;28;8830;-47
2021/05/31 06:23:37;;;;;;;;;6.00;6.00;;;;;19.66;40.77;100534.63;4998485;28;8799;-47
2021/05/31 06:26:02;;;;;;;;;5.00;5.00;;;;;19.66;40.65;100539.28;4998313;28;8818;-47
2021/05/31 06:28:28;;;;;;;;;5.00;5.00;;;;;19.67;40.59;100546.38;4979185;28;8833;-47
2021/05/31 06:30:54;;;;;;;;;3.75;3.75;;;;;19.68;40.45;100537.88;4986313;28;8807;-49
2021/05/31 06:33:22;;;;;;;;;3.50;3.50;;;;;19.71;40.64;100530.97;4996718;28;8813;-48
2021/05/31 06:35:49;;;;;;;;;5.00;5.00;;;;;19.68;40.54;100543.34;4994868;28;8816;-45
2021/05/31 06:38:14;;;;;;;;;4.00;4.00;;;;;19.66;40.58;100531.91;4995953;28;8853;-47
2021/05/31 06:40:40;;;;;;;;;5.00;5.00;;;;;19.66;40.69;100533.81;4978722;28;8835;-47
2021/05/31 06:43:06;;;;;;;;;3.40;3.40;;;;;19.70;40.63;100532.09;4985349;28;8832;-46
2021/05/31 06:45:33;;;;;;;;;5.00;4.60;;;;;19.68;40.38;100531.56;5001087;28;8773;-46
2021/05/31 06:48:01;;;;;;;;;4.20;4.20;;;;;19.68;40.20;100482.31;4993687;28;8800;-48
2021/05/31 06:50:29;;;;;;;;;3.80;3.40;;;;;19.88;40.30;100535.03;4992781;28;10119;-48
2021/05/31 06:52:54;;;;;;;;;4.40;4.40;;;;;19.77;40.45;100534.41;4995074;28;8820;-49
2021/05/31 06:55:22;;;;;;;;;4.00;4.00;;;;;19.75;40.44;100534.75;4994746;28;8865;-48
2021/05/31 06:57:50;;;;;;;;;4.80;4.80;;;;;19.94;40.29;100533.78;4988311;28;8808;-48
2021/05/31 07:00:17;;;;;;;;;4.00;4.00;;;;;19.85;40.39;100525.47;4984166;28;8986;-49
2021/05/31 07:02:42;;;;;;;;;3.80;3.80;;;;;19.79;40.59;100524.78;4995122;28;9000;-47
2021/05/31 07:05:10;;;;;;;;;3.75;3.75;;;;;19.79;40.49;100526.72;4997199;28;8820;-48
2021/05/31 07:07:39;;;;;;;;;5.00;5.00;;;;;19.73;40.65;100527.91;4991446;28;8875;-49
2021/05/31 07:10:06;;;;;;;;;4.60;4.60;;;;;19.73;40.61;100523.25;4993902;28;8815;-49
2021/05/31 07:12:32;;;;;;;;;5.00;5.00;;;;;19.71;40.70;100525.47;4998919;28;8912;-48
2021/05/31 07:14:59;;;;;;;;;4.80;4.80;;;;;19.71;40.70;100528.22;4992113;28;8955;-49
2021/05/31 07:17:24;;;;;;;;;5.80;5.20;;;;;19.73;40.61;100528.72;5001090;28;8847;-50
2021/05/31 07:19:49;;;;;;;;;4.00;4.00;;;;;19.71;40.70;100524.69;4991140;28;8887;-51
2021/05/31 07:22:16;;;;;;;;;6.25;6.25;;;;;19.71;40.66;100525.47;4990712;28;8779;-50
2021/05/31 07:24:42;;;;;;;;;4.60;4.60;;;;;19.69;40.70;100519.50;4994000;28;8792;-50
2021/05/31 07:27:08;;;;;;;;;4.00;4.00;;;;;19.71;40.63;100521.94;4991874;28;8812;-51
2021/05/31 07:29:33;;;;;;;;;4.00;4.00;;;;;19.70;40.60;100512.94;4996829;28;8808;-53
2021/05/31 07:31:59;;;;;;;;;4.00;4.00;;;;;19.67;40.54;100525.28;4992142;28;8804;-51
2021/05/31 07:34:24;;;;;;;;;5.00;5.00;;;;;19.68;40.70;100523.34;4996070;28;8784;-52
2021/05/31 07:36:49;;;;;;;;;4.00;4.00;;;;;19.70;40.80;100517.56;4993184;28;8826;-50
2021/05/31 07:39:15;;;;;;;;;7.00;7.00;;;;;19.70;40.72;100517.56;4995498;28;8819;-52
2021/05/31 07:41:40;;;;;;;;;4.25;4.25;;;;;19.64;40.68;100519.63;4995801;28;8919;-50
2021/05/31 07:44:06;;;;;;;;;5.00;5.00;;;;;19.66;40.81;100520.94;4997232;28;8882;-51
2021/05/31 07:46:31;;;;;;;;;3.50;3.50;;;;;19.66;40.72;100511.91;4997040;28;8784;-51
2021/05/31 07:48:57;;;;;;;;;5.00;4.25;;;;;19.66;40.73;100515.47;4995375;28;8812;-51
2021/05/31 07:51:22;;;;;;;;;4.75;4.75;;;;;19.67;40.72;100513.53;4994804;28;8799;-51
2021/05/31 07:53:52;;;;;;;;;4.25;4.25;;;;;19.66;40.76;100512.75;4994061;28;8901;-49
2021/05/31 07:56:20;;;;;;;;;4.40;4.40;;;;;19.67;40.86;100508.88;4973202;28;8879;-50
2021/05/31 07:58:46;;;;;;;;;5.00;4.00;;;;;19.55;40.79;100488.63;4977332;28;8818;-51
2021/05/31 08:01:12;;;;;;;;;4.00;4.00;;;;;19.65;40.79;100505.63;4977615;28;8822;-51
2021/05/31 08:03:39;;;;;;;;;5.00;5.00;;;;;19.68;40.84;100504.19;4986479;28;8792;-51
2021/05/31 08:06:04;;;;;;;;;5.40;5.40;;;;;19.65;40.77;100505.63;4995849;28;8792;-51
2021/05/31 08:08:30;;;;;;;;;6.50;6.50;;;;;19.63;40.77;100477.78;4995629;28;8874;-51
2021/05/31 08:10:56;;;;;;;;;4.00;4.00;;;;;19.75;40.67;100498.34;4990313;28;8847;-52
2021/05/31 08:13:22;;;;;;;;;4.00;4.00;;;;;19.69;40.78;100492.13;4995054;28;8838;-52
2021/05/31 08:15:48;;;;;;;;;5.20;5.20;;;;;19.68;40.67;100499.56;4989302;28;10612;-53
2021/05/31 08:18:13;;;;;;;;;4.80;4.80;;;;;19.61;40.76;100474.53;4991897;28;8792;-52
2021/05/31 08:20:40;;;;;;;;;5.00;5.00;;;;;19.73;40.77;100492.34;4993223;28;8792;-52
2021/05/31 08:23:06;;;;;;;;;3.20;3.20;;;;;19.72;40.68;100491.53;4990436;28;8780;-53
2021/05/31 08:25:32;;;;;;;;;4.00;4.00;;;;;19.73;40.77;100489.59;4992970;28;8801;-53
2021/05/31 08:27:57;;;;;;;;;5.00;5.00;;;;;19.73;40.65;100484.13;4993851;28;11586;-51
2021/05/31 08:30:23;;;;;;;;;4.75;4.75;;;;;19.71;40.85;100484.44;4994590;28;8883;-50
2021/05/31 08:32:49;;;;;;;;;4.20;4.20;;;;;19.71;40.64;100483.63;4995382;28;8857;-51
2021/05/31 08:35:15;;;;;;;;;4.50;4.50;;;;;19.70;40.80;100482.81;4994385;28;8808;-50
2021/05/31 08:37:41;;;;;;;;;4.80;4.80;;;;;19.71;40.57;100481.69;4973908;28;8839;-50
2021/05/31 08:40:08;;;;;;;;;5.00;5.00;;;;;19.68;40.66;100480.41;4985933;28;8780;-50
2021/05/31 08:42:37;;;;;;;;;4.00;4.00;;;;;19.68;40.75;100477.66;4994971;28;8801;-50
2021/05/31 08:45:09;;;;;;;;;4.00;4.00;;;;;19.71;40.51;100476.22;4990546;28;8806;-49
2021/05/31 08:47:43;;;;;;;;;4.60;4.20;;;;;19.70;40.71;100471.03;4996347;28;8781;-50
2021/05/31 08:50:11;;;;;;;;;4.00;4.00;;;;;19.70;40.66;100480.09;4994493;28;8789;-49
2021/05/31 08:52:37;;;;;;;;;3.40;3.40;;;;;19.70;40.70;100474.63;4989770;28;8838;-50
2021/05/31 08:55:08;;;;;;;;;4.00;4.00;;;;;19.68;40.80;100474.91;4981317;28;8977;-50
2021/05/31 08:57:34;;;;;;;;;3.60;3.60;;;;;19.67;40.91;100470.56;4976822;28;8820;-50
2021/05/31 08:59:59;;;;;;;;;4.20;4.20;;;;;19.69;40.72;100475.72;4992788;28;8824;-50
2021/05/31 09:02:31;;;;;;;;;5.00;5.00;;;;;19.67;40.66;100473.28;4995144;28;8803;-50
2021/05/31 09:04:56;;;;;;;;;4.00;4.00;;;;;19.62;40.93;100467.94;4990115;28;8784;-50
2021/05/31 09:07:22;;;;;;;;;4.75;4.75;;;;;19.63;40.83;100469.56;4990397;28;8802;-50
2021/05/31 09:09:47;;;;;;;;;5.00;5.00;;;;;19.64;40.83;100471.16;4989720;28;8814;-50
2021/05/31 09:12:20;;;;;;;;;4.00;4.00;;;;;19.58;40.98;100466.13;4985697;28;9563;-50
2021/05/31 09:14:56;;;;;;;;;4.60;4.60;;;;;19.57;40.93;100467.25;4975297;28;8798;-49
2021/05/31 09:17:27;;;;;;;;;3.60;3.60;;;;;19.57;41.02;100464.50;4992513;28;8901;-50
2021/05/31 09:19:53;;;;;;;;;3.00;3.00;;;;;19.58;40.90;100466.13;4991014;28;9834;-50
2021/05/31 09:22:20;;;;;;;;;4.20;4.20;;;;;19.57;40.83;100465.31;4994866;28;8780;-49
2021/05/31 09:25:00;;;;;;;;;5.00;5.00;;;;;19.52;41.00;100451.72;4986015;28;8863;-50
2021/05/31 09:27:27;;;;;;;;;5.40;4.80;;;;;19.56;41.00;100460.97;4975617;28;9035;-50
2021/05/31 09:30:03;;;;;;;;;4.40;4.40;;;;;19.56;40.97;100454.66;4976321;28;8815;-50
2021/05/31 09:32:28;;;;;;;;;4.00;4.00;;;;;19.57;41.01;100459.84;4995873;28;8834;-50
2021/05/31 09:35:00;;;;;;;;;3.75;3.75;;;;;19.72;40.76;100460.59;4995052;28;8920;-49
2021/05/31 09:37:26;;;;;;;;;4.00;4.00;;;;;19.79;40.66;100455.56;4996680;28;8769;-50
2021/05/31 09:40:03;;;;;;;;;4.00;4.00;;;;;19.78;40.67;100452.00;4994957;28;8784;-49
2021/05/31 09:42:30;;;;;;;;;4.00;4.00;;;;;19.83;40.48;100460.09;4988357;28;8819;-50
2021/05/31 09:45:08;;;;;;;;;3.80;3.80;;;;;19.83;40.59;100451.06;4977285;28;8794;-50
2021/05/31 09:47:36;;;;;;;;;4.00;3.60;;;;;19.84;40.46;100452.66;4996299;28;8803;-50
2021/05/31 09:50:05;;;;;;;;;4.60;4.60;;;;;19.85;40.43;100448.81;4997896;28;8804;-49
2021/05/31 09:52:31;;;;;;;;;3.40;3.20;;;;;19.83;40.36;100437.38;4996538;28;8836;-50
2021/05/31 09:54:56;;;;;;;;;3.50;3.50;;;;;19.83;40.63;100440.13;4993399;28;8804;-49
2021/05/31 09:57:26;;;;;;;;;4.25;4.25;;;;;19.83;40.55;100440.13;4991303;28;8833;-49
2021/05/31 10:00:01;;;;;;;;;4.00;3.60;;;;;19.89;40.36;100441.59;4996078;28;8804;-48
2021/05/31 10:05:11;;;;;;;;;4.00;4.00;;;;;19.81;40.63;100431.41;4991880;28;8898;-49
2021/05/31 10:10:20;;;;;;;;;4.80;4.00;;;;;19.81;40.43;100426.75;4991495;28;8912;-48
2021/05/31 10:12:48;;;;;;;;;5.00;5.00;;;;;19.75;40.51;100418.94;4995056;28;8965;-48
2021/05/31 10:15:18;;;;;;;;;4.20;4.20;;;;;19.83;40.46;100429.16;4993219;28;8784;-48
2021/05/31 10:17:43;;;;;;;;;4.40;3.80;;;;;19.79;40.56;100422.72;4995061;28;9540;-47
2021/05/31 10:20:09;;;;;;;;;4.00;4.00;;;;;19.80;40.56;100424.31;4998526;28;8781;-48
2021/05/31 10:22:36;;;;;;;;;4.20;4.00;;;;;19.81;40.57;100428.69;4999118;28;8819;-49
2021/05/31 10:25:05;;;;;;;;;3.80;3.80;;;;;19.78;40.63;100419.16;4993711;28;8798;-49
2021/05/31 10:27:32;;;;;;;;;3.00;3.00;;;;;19.77;40.54;100416.72;4990798;28;8869;-49
2021/05/31 10:29:59;;;;;;;;;5.20;5.20;;;;;19.81;40.58;100420.47;4976420;28;8795;-48
2021/05/31 10:32:25;;;;;;;;;4.40;4.40;;;;;19.79;40.50;100414.50;4993094;28;8933;-47
2021/05/31 10:34:53;;;;;;;;;5.00;5.00;;;;;19.82;40.49;100416.59;4996975;28;8848;-49
2021/05/31 10:37:25;;;;;;;;;4.80;4.80;;;;;19.80;40.57;100413.34;4991846;28;8794;-48
2021/05/31 10:40:11;;;;;;;;;4.60;4.00;;;;;19.80;40.60;100414.16;4995333;28;8893;-50
2021/05/31 10:42:39;;;;;;;;;3.60;3.40;;;;;19.79;40.64;100407.09;4993529;28;8810;-49
2021/05/31 10:45:38;;;;;;;;;4.60;4.60;;;;;19.78;40.68;100405.47;4993321;28;8822;-48
2021/05/31 10:48:13;;;;;;;;;3.60;3.60;;;;;19.76;40.62;100396.75;4971080;28;8841;-49
2021/05/31 10:50:44;;;;;;;;;3.80;3.80;;;;;19.75;40.71;100400.63;4996468;28;8776;-48
2021/05/31 10:53:26;;;;;;;;;3.80;3.80;;;;;19.76;40.82;100395.94;4994181;28;14297;-49
2021/05/31 10:56:01;;;;;;;;;4.00;4.00;;;;;19.76;40.69;100398.69;4991983;28;8767;-48
2021/05/31 12:02:39;;;;;;;;;6.25;6.25;;;;;24.28;32.54;100311.91;4971997;28;75023;-64
2021/05/31 12:05:04;;;;;;;;;9.50;9.00;;;;;24.15;32.45;100313.84;4995189;28;57844;-64
2021/05/31 12:07:30;;;;;;;;;8.00;7.00;;;;;24.11;33.12;100319.25;5007484;28;13075;-57
2021/05/31 12:09:55;;;;;;;;;7.33;7.33;;;;;23.84;32.88;100317.94;5035638;28;12168;-59
2021/05/31 12:12:24;;;;;;;;;6.00;5.67;;;;;24.44;32.08;100312.03;5026790;28;8843;-58
2021/05/31 12:14:56;;;;;;;;;8.50;8.50;;;;;23.96;32.54;100315.22;5029564;28;12351;-58
2021/05/31 12:17:27;;;;;;;;;8.00;7.75;;;;;23.88;32.18;100316.09;5017692;28;8792;-57
2021/05/31 12:19:55;;;;;;;;;5.75;5.00;;;;;23.77;32.48;100320.44;5008244;28;9571;-58
2021/05/31 12:22:28;;;;;;;;;7.25;7.25;;;;;23.69;32.56;100311.09;5025107;28;8794;-58
2021/05/31 12:25:00;;;;;;;;;7.50;7.50;;;;;23.48;32.82;100319.41;5024375;28;8788;-58
2021/05/31 12:27:30;;;;;;;;;7.50;7.25;;;;;23.49;32.69;100320.22;5012920;28;8915;-58
2021/05/31 12:29:56;;;;;;;;;9.25;8.25;;;;;23.64;32.89;100314.09;5015049;28;9511;-71
2021/05/31 12:32:24;;;;;;;;;9.00;7.25;;;;;23.57;32.65;100313.81;5024011;28;8818;-66
2021/05/31 12:34:50;;;;;;;;;6.50;6.50;;;;;23.49;32.46;100306.47;5030297;28;8805;-68
2021/05/31 12:37:22;;;;;;;;;8.00;7.75;;;;;23.29;32.71;100306.16;4985536;28;12615;-66
2021/05/31 12:39:50;;;;;;;;;5.75;5.75;;;;;23.20;33.16;100302.66;5021636;28;8831;-69
2021/05/31 12:42:23;;;;;;;;;7.75;7.00;;;;;23.21;33.37;100305.06;5024598;28;8769;-68
2021/05/31 12:44:49;;;;;;;;;0.00;0.00;;;;;23.71;32.59;100296.97;5026890;28;8804;-60
2021/05/31 12:47:19;;;;;;;;;0.00;0.00;;;;;23.79;32.39;100305.16;5028121;28;8856;-59
2021/05/31 12:49:45;;;;;;;;;0.00;0.00;;;;;23.92;32.05;100306.03;5024769;28;8860;-64
2021/05/31 12:52:11;;;;;;;;;0.00;0.00;;;;;23.80;32.67;100298.53;5028095;28;8805;-57
2021/05/31 12:54:37;;;;;;;;;0.00;0.00;;;;;23.68;32.95;100301.25;5024304;28;8893;-59
2021/05/31 12:57:17;;;;;;;;;0.00;0.00;;;;;23.97;32.97;100299.47;5029058;28;8870;-67
2021/05/31 12:59:49;;;;;;;;;0.00;0.00;;;;;24.35;32.72;100292.84;4984661;28;13712;-66